sensor_id;sensor_type;location;lat;lon;timestamp;pressure;altitude;pressure_sealevel;temperature;humidity
44734;BME280;30462;52.446;-1.930;2024-01-30T00:00:14;100379.8359;;;;
44734;BME280;30462;52.446;-1.930;2024-01-30T00:01:14;100382.2969;;;;
44734;BME280;30462;52.446;-1.930;2024-01-30T00:02:14;100377.9141;;;;
44734;BME280;30462;52.446;-1.930;2024-01-30T00:03:14;100376.1563;;;;
44734;BME280;30462;52.446;-1.930;2024-01-30T00:04:14;100377.6602;;;;
44734;BME280;30462;52.446;-1.930;2024-01-30T00:05:14;100373.9258;;;;
44734;BME280;30462;52.446;-1.930;2024-01-30T00:06:13;100379.2188;;;;
44734;BME280;30462;52.446;-1.930;2024-01-30T00:07:14;100379.1719;;;;
44734;BME280;30462;52.446;-1.930;2024-01-30T00:08:14;100381.3008;;;;
44734;BME280;30462;52.446;-1.930;2024-01-30T00:09:14;100385.3477;;;;
44734;BME280;30462;52.446;-1.930;2024-01-30T00:10:13;100389.3516;;;;
44734;BME280;30462;52.446;-1.930;2024-01-30T00:11:13;100382.9805;;;;
44734;BME280;30462;52.446;-1.930;2024-01-30T00:12:14;100385.332;;;;
44734;BME280;30462;52.446;-1.930;2024-01-30T00:13:14;100383.8516;;;;
44734;BME280;30462;52.446;-1.930;2024-01-30T00:14:14;100386.2461;;;;
44734;BME280;30462;52.446;-1.930;2024-01-30T00:15:13;100386.3984;;;;
44734;BME280;30462;52.446;-1.930;2024-01-30T00:17:14;100383.1367;;;;
44734;BME280;30462;52.446;-1.930;2024-01-30T00:18:14;100380.0039;;;;
44734;BME280;30462;52.446;-1.930;2024-01-30T00:19:13;100380.8398;;;;
44734;BME280;30462;52.446;-1.930;2024-01-30T00:20:13;100379.3555;;;;
44734;BME280;30462;52.446;-1.930;2024-01-30T00:21:14;100379.6328;;;;
44734;BME280;30462;52.446;-1.930;2024-01-30T00:22:14;100380.2891;;;;
44734;BME280;30462;52.446;-1.930;2024-01-30T00:23:14;100386.1914;;;;
44734;BME280;30462;52.446;-1.930;2024-01-30T00:24:14;100381.7539;;;;
44734;BME280;30462;52.446;-1.930;2024-01-30T00:25:13;100383.4141;;;;
44734;BME280;30462;52.446;-1.930;2024-01-30T00:26:14;100385.8164;;;;
44734;BME280;30462;52.446;-1.930;2024-01-30T00:27:13;100379.8945;;;;
44734;BME280;30462;52.446;-1.930;2024-01-30T00:28:14;100382.0313;;;;
44734;BME280;30462;52.446;-1.930;2024-01-30T00:29:14;100380.8008;;;;
44734;BME280;30462;52.446;-1.930;2024-01-30T00:30:14;100376.4297;;;;
44734;BME280;30462;52.446;-1.930;2024-01-30T00:31:13;100383.668;;;;
44734;BME280;30462;52.446;-1.930;2024-01-30T00:32:14;100380.2617;;;;
44734;BME280;30462;52.446;-1.930;2024-01-30T00:33:14;100381.7461;;;;
44734;BME280;30462;52.446;-1.930;2024-01-30T00:34:14;100385.6133;;;;
44734;BME280;30462;52.446;-1.930;2024-01-30T00:35:13;100382.2227;;;;
44734;BME280;30462;52.446;-1.930;2024-01-30T00:36:13;100379.207;;;;
44734;BME280;30462;52.446;-1.930;2024-01-30T00:37:14;100384.457;;;;
44734;BME280;30462;52.446;-1.930;2024-01-30T00:38:14;100384.8789;;;;
44734;BME280;30462;52.446;-1.930;2024-01-30T00:39:14;100387.4453;;;;
44734;BME280;30462;52.446;-1.930;2024-01-30T00:40:14;100389.4023;;;;
44734;BME280;30462;52.446;-1.930;2024-01-30T00:41:14;100393.7695;;;;
44734;BME280;30462;52.446;-1.930;2024-01-30T00:42:14;100393.7227;;;;
44734;BME280;30462;52.446;-1.930;2024-01-30T00:43:14;100395.2461;;;;
44734;BME280;30462;52.446;-1.930;2024-01-30T00:44:13;100394.1914;;;;
44734;BME280;30462;52.446;-1.930;2024-01-30T00:45:14;100391.0391;;;;
44734;BME280;30462;52.446;-1.930;2024-01-30T00:46:14;100395.043;;;;
44734;BME280;30462;52.446;-1.930;2024-01-30T00:47:14;100396.7344;;;;
44734;BME280;30462;52.446;-1.930;2024-01-30T00:48:14;100392.3555;;;;
44734;BME280;30462;52.446;-1.930;2024-01-30T00:49:14;100392.6836;;;;
44734;BME280;30462;52.446;-1.930;2024-01-30T00:50:14;100393.2305;;;;
44734;BME280;30462;52.446;-1.930;2024-01-30T00:51:14;100385.8945;;;;
44734;BME280;30462;52.446;-1.930;2024-01-30T00:52:14;100385.3945;;;;
44734;BME280;30462;52.446;-1.930;2024-01-30T00:53:14;100386.707;;;;
44734;BME280;30462;52.446;-1.930;2024-01-30T00:54:13;100386.1445;;;;
44734;BME280;30462;52.446;-1.930;2024-01-30T00:55:14;100384.1094;;;;
44734;BME280;30462;52.446;-1.930;2024-01-30T00:56:14;100383.875;;;;
44734;BME280;30462;52.446;-1.930;2024-01-30T00:57:14;100377.8086;;;;
44734;BME280;30462;52.446;-1.930;2024-01-30T00:58:13;100385;;;;
44734;BME280;30462;52.446;-1.930;2024-01-30T00:59:14;100386.8086;;;;
44734;BME280;30462;52.446;-1.930;2024-01-30T01:00:14;100387.1875;;;;
44734;BME280;30462;52.446;-1.930;2024-01-30T01:01:14;100383.7891;;;;
44734;BME280;30462;52.446;-1.930;2024-01-30T01:02:14;100386.3086;;;;
44734;BME280;30462;52.446;-1.930;2024-01-30T01:03:14;100383.7578;;;;
44734;BME280;30462;52.446;-1.930;2024-01-30T01:04:14;100384.707;;;;
44734;BME280;30462;52.446;-1.930;2024-01-30T01:05:13;100384.9297;;;;
44734;BME280;30462;52.446;-1.930;2024-01-30T01:06:14;100382.3008;;;;
44734;BME280;30462;52.446;-1.930;2024-01-30T01:07:14;100382.8906;;;;
44734;BME280;30462;52.446;-1.930;2024-01-30T01:08:14;100382.3867;;;;
44734;BME280;30462;52.446;-1.930;2024-01-30T01:09:14;100386.2109;;;;
44734;BME280;30462;52.446;-1.930;2024-01-30T01:10:13;100381.9414;;;;
44734;BME280;30462;52.446;-1.930;2024-01-30T01:11:14;100384.5039;;;;
44734;BME280;30462;52.446;-1.930;2024-01-30T01:12:14;100385.5508;;;;
44734;BME280;30462;52.446;-1.930;2024-01-30T01:13:14;100387.2305;;;;
44734;BME280;30462;52.446;-1.930;2024-01-30T01:14:14;100387.2734;;;;
44734;BME280;30462;52.446;-1.930;2024-01-30T01:15:14;100390.625;;;;
44734;BME280;30462;52.446;-1.930;2024-01-30T01:16:14;100389.0117;;;;
44734;BME280;30462;52.446;-1.930;2024-01-30T01:17:14;100387.707;;;;
44734;BME280;30462;52.446;-1.930;2024-01-30T01:18:13;100393.6289;;;;
44734;BME280;30462;52.446;-1.930;2024-01-30T01:19:14;100390.293;;;;
44734;BME280;30462;52.446;-1.930;2024-01-30T01:20:14;100393.5977;;;;
44734;BME280;30462;52.446;-1.930;2024-01-30T01:21:14;100396.6172;;;;
44734;BME280;30462;52.446;-1.930;2024-01-30T01:22:15;100398.9297;;;;
44734;BME280;30462;52.446;-1.930;2024-01-30T01:23:14;100397.332;;;;
44734;BME280;30462;52.446;-1.930;2024-01-30T01:24:14;100395.2539;;;;
44734;BME280;30462;52.446;-1.930;2024-01-30T01:25:14;100397.0586;;;;
44734;BME280;30462;52.446;-1.930;2024-01-30T01:26:14;100396.6758;;;;
44734;BME280;30462;52.446;-1.930;2024-01-30T01:27:14;100395.5586;;;;
44734;BME280;30462;52.446;-1.930;2024-01-30T01:28:14;100393.0195;;;;
44734;BME280;30462;52.446;-1.930;2024-01-30T01:29:14;100393.7383;;;;
44734;BME280;30462;52.446;-1.930;2024-01-30T01:30:14;100394.3281;;;;
44734;BME280;30462;52.446;-1.930;2024-01-30T01:31:14;100397.9453;;;;
44734;BME280;30462;52.446;-1.930;2024-01-30T01:32:13;100392.8516;;;;
44734;BME280;30462;52.446;-1.930;2024-01-30T01:33:14;100390.8789;;;;
44734;BME280;30462;52.446;-1.930;2024-01-30T01:34:14;100403.5703;;;;
44734;BME280;30462;52.446;-1.930;2024-01-30T01:35:14;100395.3555;;;;
44734;BME280;30462;52.446;-1.930;2024-01-30T01:36:14;100402.75;;;;
44734;BME280;30462;52.446;-1.930;2024-01-30T01:37:14;100404.2773;;;;
44734;BME280;30462;52.446;-1.930;2024-01-30T01:38:13;100403.8125;;;;
44734;BME280;30462;52.446;-1.930;2024-01-30T01:39:14;100401.1445;;;;
44734;BME280;30462;52.446;-1.930;2024-01-30T01:40:14;100403.4414;;;;
44734;BME280;30462;52.446;-1.930;2024-01-30T01:41:14;100404.3984;;;;
44734;BME280;30462;52.446;-1.930;2024-01-30T01:42:14;100405.4453;;;;
44734;BME280;30462;52.446;-1.930;2024-01-30T01:43:14;100406.2813;;;;
44734;BME280;30462;52.446;-1.930;2024-01-30T01:44:13;100398.332;;;;
44734;BME280;30462;52.446;-1.930;2024-01-30T01:45:13;100398.1523;;;;
44734;BME280;30462;52.446;-1.930;2024-01-30T01:46:14;100397.7266;;;;
44734;BME280;30462;52.446;-1.930;2024-01-30T01:47:14;100394.9492;;;;
44734;BME280;30462;52.446;-1.930;2024-01-30T01:48:14;100399.5195;;;;
44734;BME280;30462;52.446;-1.930;2024-01-30T01:49:13;100397.3945;;;;
44734;BME280;30462;52.446;-1.930;2024-01-30T01:50:14;100395.3828;;;;
44734;BME280;30462;52.446;-1.930;2024-01-30T01:51:13;100397.5625;;;;
44734;BME280;30462;52.446;-1.930;2024-01-30T01:52:14;100395.457;;;;
44734;BME280;30462;52.446;-1.930;2024-01-30T01:53:14;100394.1016;;;;
44734;BME280;30462;52.446;-1.930;2024-01-30T01:54:14;100397.3906;;;;
44734;BME280;30462;52.446;-1.930;2024-01-30T01:55:14;100393.5586;;;;
44734;BME280;30462;52.446;-1.930;2024-01-30T01:56:14;100396.3203;;;;
44734;BME280;30462;52.446;-1.930;2024-01-30T01:57:13;100398.2617;;;;
44734;BME280;30462;52.446;-1.930;2024-01-30T01:58:13;100390.9336;;;;
44734;BME280;30462;52.446;-1.930;2024-01-30T01:59:14;100394.9883;;;;
44734;BME280;30462;52.446;-1.930;2024-01-30T02:00:14;100393.7148;;;;
44734;BME280;30462;52.446;-1.930;2024-01-30T02:01:14;100395.3477;;;;
44734;BME280;30462;52.446;-1.930;2024-01-30T02:02:14;100394.9492;;;;
44734;BME280;30462;52.446;-1.930;2024-01-30T02:03:14;100391.6289;;;;
44734;BME280;30462;52.446;-1.930;2024-01-30T02:04:14;100391.832;;;;
44734;BME280;30462;52.446;-1.930;2024-01-30T02:05:14;100394.6992;;;;
44734;BME280;30462;52.446;-1.930;2024-01-30T02:06:14;100396.668;;;;
44734;BME280;30462;52.446;-1.930;2024-01-30T02:07:14;100396.0117;;;;
44734;BME280;30462;52.446;-1.930;2024-01-30T02:08:14;100394.3086;;;;
44734;BME280;30462;52.446;-1.930;2024-01-30T02:09:14;100397.7344;;;;
44734;BME280;30462;52.446;-1.930;2024-01-30T02:10:14;100399.5234;;;;
44734;BME280;30462;52.446;-1.930;2024-01-30T02:11:14;100397.2188;;;;
44734;BME280;30462;52.446;-1.930;2024-01-30T02:12:14;100399.8945;;;;
44734;BME280;30462;52.446;-1.930;2024-01-30T02:13:13;100402.8477;;;;
44734;BME280;30462;52.446;-1.930;2024-01-30T02:14:14;100401.7578;;;;
44734;BME280;30462;52.446;-1.930;2024-01-30T02:15:14;100400.6523;;;;
44734;BME280;30462;52.446;-1.930;2024-01-30T02:16:14;100397.5469;;;;
44734;BME280;30462;52.446;-1.930;2024-01-30T02:17:14;100396.1758;;;;
44734;BME280;30462;52.446;-1.930;2024-01-30T02:18:14;100398.2031;;;;
44734;BME280;30462;52.446;-1.930;2024-01-30T02:19:13;100397.1602;;;;
44734;BME280;30462;52.446;-1.930;2024-01-30T02:20:14;100395.9141;;;;
44734;BME280;30462;52.446;-1.930;2024-01-30T02:21:14;100398.1211;;;;
44734;BME280;30462;52.446;-1.930;2024-01-30T02:22:13;100391.1758;;;;
44734;BME280;30462;52.446;-1.930;2024-01-30T02:23:14;100393.8047;;;;
44734;BME280;30462;52.446;-1.930;2024-01-30T02:24:14;100395.293;;;;
44734;BME280;30462;52.446;-1.930;2024-01-30T02:25:14;100391.1953;;;;
44734;BME280;30462;52.446;-1.930;2024-01-30T02:26:13;100395.3945;;;;
44734;BME280;30462;52.446;-1.930;2024-01-30T02:27:14;100397.0352;;;;
44734;BME280;30462;52.446;-1.930;2024-01-30T02:28:14;100400.7617;;;;
44734;BME280;30462;52.446;-1.930;2024-01-30T02:29:14;100396.2148;;;;
44734;BME280;30462;52.446;-1.930;2024-01-30T02:30:14;100400.4727;;;;
44734;BME280;30462;52.446;-1.930;2024-01-30T02:31:14;100403.293;;;;
44734;BME280;30462;52.446;-1.930;2024-01-30T02:32:14;100409.1289;;;;
44734;BME280;30462;52.446;-1.930;2024-01-30T02:33:14;100414.5;;;;
44734;BME280;30462;52.446;-1.930;2024-01-30T02:34:14;100413.5;;;;
44734;BME280;30462;52.446;-1.930;2024-01-30T02:35:14;100413.5;;;;
44734;BME280;30462;52.446;-1.930;2024-01-30T02:36:13;100416.4023;;;;
44734;BME280;30462;52.446;-1.930;2024-01-30T02:37:14;100419.5;;;;
44734;BME280;30462;52.446;-1.930;2024-01-30T02:38:14;100418.8867;;;;
44734;BME280;30462;52.446;-1.930;2024-01-30T02:39:13;100419.7148;;;;
44734;BME280;30462;52.446;-1.930;2024-01-30T02:40:14;100422.3633;;;;
44734;BME280;30462;52.446;-1.930;2024-01-30T02:41:14;100418.8086;;;;
44734;BME280;30462;52.446;-1.930;2024-01-30T02:42:14;100424.793;;;;
44734;BME280;30462;52.446;-1.930;2024-01-30T02:43:14;100422.9961;;;;
44734;BME280;30462;52.446;-1.930;2024-01-30T02:44:14;100424.1094;;;;
44734;BME280;30462;52.446;-1.930;2024-01-30T02:45:14;100424.5234;;;;
44734;BME280;30462;52.446;-1.930;2024-01-30T02:46:14;100420.5273;;;;
44734;BME280;30462;52.446;-1.930;2024-01-30T02:47:14;100425.6641;;;;
44734;BME280;30462;52.446;-1.930;2024-01-30T02:48:14;100429.5547;;;;
44734;BME280;30462;52.446;-1.930;2024-01-30T02:49:14;100429.2539;;;;
44734;BME280;30462;52.446;-1.930;2024-01-30T02:50:14;100434.1406;;;;
44734;BME280;30462;52.446;-1.930;2024-01-30T02:51:14;100435.4102;;;;
44734;BME280;30462;52.446;-1.930;2024-01-30T02:52:14;100441.3438;;;;
44734;BME280;30462;52.446;-1.930;2024-01-30T02:53:13;100438.0547;;;;
44734;BME280;30462;52.446;-1.930;2024-01-30T02:54:14;100437.1719;;;;
44734;BME280;30462;52.446;-1.930;2024-01-30T02:55:14;100437.6719;;;;
44734;BME280;30462;52.446;-1.930;2024-01-30T02:56:14;100443.1836;;;;
44734;BME280;30462;52.446;-1.930;2024-01-30T02:57:14;100441.8242;;;;
44734;BME280;30462;52.446;-1.930;2024-01-30T02:58:14;100441.0352;;;;
44734;BME280;30462;52.446;-1.930;2024-01-30T02:59:13;100440.8203;;;;
44734;BME280;30462;52.446;-1.930;2024-01-30T03:00:14;100445.7383;;;;
44734;BME280;30462;52.446;-1.930;2024-01-30T03:01:14;100447.4531;;;;
44734;BME280;30462;52.446;-1.930;2024-01-30T03:02:14;100446.5117;;;;
44734;BME280;30462;52.446;-1.930;2024-01-30T03:03:14;100449.0313;;;;
44734;BME280;30462;52.446;-1.930;2024-01-30T03:04:14;100446.1836;;;;
44734;BME280;30462;52.446;-1.930;2024-01-30T03:05:14;100449.7969;;;;
44734;BME280;30462;52.446;-1.930;2024-01-30T03:06:14;100451.5195;;;;
44734;BME280;30462;52.446;-1.930;2024-01-30T03:07:13;100447.1055;;;;
44734;BME280;30462;52.446;-1.930;2024-01-30T03:08:14;100450.0781;;;;
44734;BME280;30462;52.446;-1.930;2024-01-30T03:09:15;100451.3789;;;;
44734;BME280;30462;52.446;-1.930;2024-01-30T03:10:13;100450.8672;;;;
44734;BME280;30462;52.446;-1.930;2024-01-30T03:11:14;100452.6406;;;;
44734;BME280;30462;52.446;-1.930;2024-01-30T03:12:14;100458.1641;;;;
44734;BME280;30462;52.446;-1.930;2024-01-30T03:13:14;100460.8164;;;;
44734;BME280;30462;52.446;-1.930;2024-01-30T03:14:13;100464.7227;;;;
44734;BME280;30462;52.446;-1.930;2024-01-30T03:15:14;100475.4023;;;;
44734;BME280;30462;52.446;-1.930;2024-01-30T03:16:14;100487.2813;;;;
44734;BME280;30462;52.446;-1.930;2024-01-30T03:17:14;100485.1445;;;;
44734;BME280;30462;52.446;-1.930;2024-01-30T03:18:14;100495.4102;;;;
44734;BME280;30462;52.446;-1.930;2024-01-30T03:19:14;100492.2461;;;;
44734;BME280;30462;52.446;-1.930;2024-01-30T03:20:13;100488.9102;;;;
44734;BME280;30462;52.446;-1.930;2024-01-30T03:21:13;100490.9141;;;;
44734;BME280;30462;52.446;-1.930;2024-01-30T03:22:14;100492.7969;;;;
44734;BME280;30462;52.446;-1.930;2024-01-30T03:23:14;100489.582;;;;
44734;BME280;30462;52.446;-1.930;2024-01-30T03:24:14;100485.0586;;;;
44734;BME280;30462;52.446;-1.930;2024-01-30T03:25:13;100494.5391;;;;
44734;BME280;30462;52.446;-1.930;2024-01-30T03:26:14;100495.5469;;;;
44734;BME280;30462;52.446;-1.930;2024-01-30T03:27:14;100497.5117;;;;
44734;BME280;30462;52.446;-1.930;2024-01-30T03:28:13;100501.6094;;;;
44734;BME280;30462;52.446;-1.930;2024-01-30T03:29:14;100506.8281;;;;
44734;BME280;30462;52.446;-1.930;2024-01-30T03:30:14;100507.7695;;;;
44734;BME280;30462;52.446;-1.930;2024-01-30T03:31:15;100506.4297;;;;
44734;BME280;30462;52.446;-1.930;2024-01-30T03:32:14;100513.1055;;;;
44734;BME280;30462;52.446;-1.930;2024-01-30T03:33:14;100509.9336;;;;
44734;BME280;30462;52.446;-1.930;2024-01-30T03:34:14;100512.5391;;;;
44734;BME280;30462;52.446;-1.930;2024-01-30T03:35:13;100513.6641;;;;
44734;BME280;30462;52.446;-1.930;2024-01-30T03:36:14;100510.1094;;;;
44734;BME280;30462;52.446;-1.930;2024-01-30T03:37:13;100511.6406;;;;
44734;BME280;30462;52.446;-1.930;2024-01-30T03:38:13;100519.957;;;;
44734;BME280;30462;52.446;-1.930;2024-01-30T03:39:14;100511.1133;;;;
44734;BME280;30462;52.446;-1.930;2024-01-30T03:40:14;100512.4922;;;;
44734;BME280;30462;52.446;-1.930;2024-01-30T03:41:14;100517.9805;;;;
44734;BME280;30462;52.446;-1.930;2024-01-30T03:42:14;100524.4219;;;;
44734;BME280;30462;52.446;-1.930;2024-01-30T03:43:13;100522.6797;;;;
44734;BME280;30462;52.446;-1.930;2024-01-30T03:44:14;100528.9336;;;;
44734;BME280;30462;52.446;-1.930;2024-01-30T03:45:14;100527.3945;;;;
44734;BME280;30462;52.446;-1.930;2024-01-30T03:46:14;100529.6641;;;;
44734;BME280;30462;52.446;-1.930;2024-01-30T03:47:14;100527;;;;
44734;BME280;30462;52.446;-1.930;2024-01-30T03:48:14;100536.0625;;;;
44734;BME280;30462;52.446;-1.930;2024-01-30T03:49:14;100529.4336;;;;
44734;BME280;30462;52.446;-1.930;2024-01-30T03:50:13;100537.7188;;;;
44734;BME280;30462;52.446;-1.930;2024-01-30T03:51:13;100536.082;;;;
44734;BME280;30462;52.446;-1.930;2024-01-30T03:52:14;100539.8125;;;;
44734;BME280;30462;52.446;-1.930;2024-01-30T03:53:14;100542.2148;;;;
44734;BME280;30462;52.446;-1.930;2024-01-30T03:54:14;100547.582;;;;
44734;BME280;30462;52.446;-1.930;2024-01-30T03:55:14;100548.5039;;;;
44734;BME280;30462;52.446;-1.930;2024-01-30T03:56:14;100553.6133;;;;
44734;BME280;30462;52.446;-1.930;2024-01-30T03:57:14;100550.8984;;;;
44734;BME280;30462;52.446;-1.930;2024-01-30T03:58:14;100550.8125;;;;
44734;BME280;30462;52.446;-1.930;2024-01-30T03:59:14;100560.8945;;;;
44734;BME280;30462;52.446;-1.930;2024-01-30T04:00:14;100562.1367;;;;
44734;BME280;30462;52.446;-1.930;2024-01-30T04:01:14;100562.6445;;;;
44734;BME280;30462;52.446;-1.930;2024-01-30T04:02:14;100564.6563;;;;
44734;BME280;30462;52.446;-1.930;2024-01-30T04:03:14;100569.2695;;;;
44734;BME280;30462;52.446;-1.930;2024-01-30T04:04:14;100569.2852;;;;
44734;BME280;30462;52.446;-1.930;2024-01-30T04:05:14;100571.6914;;;;
44734;BME280;30462;52.446;-1.930;2024-01-30T04:06:14;100569.5469;;;;
44734;BME280;30462;52.446;-1.930;2024-01-30T04:07:14;100577.0234;;;;
44734;BME280;30462;52.446;-1.930;2024-01-30T04:08:14;100578.2617;;;;
44734;BME280;30462;52.446;-1.930;2024-01-30T04:09:13;100573.2031;;;;
44734;BME280;30462;52.446;-1.930;2024-01-30T04:10:14;100570.4219;;;;
44734;BME280;30462;52.446;-1.930;2024-01-30T04:11:14;100574.5352;;;;
44734;BME280;30462;52.446;-1.930;2024-01-30T04:12:14;100576.2813;;;;
44734;BME280;30462;52.446;-1.930;2024-01-30T04:13:13;100579.8438;;;;
44734;BME280;30462;52.446;-1.930;2024-01-30T04:14:14;100581.0469;;;;
44734;BME280;30462;52.446;-1.930;2024-01-30T04:15:14;100580.4258;;;;
44734;BME280;30462;52.446;-1.930;2024-01-30T04:17:14;100586.6445;;;;
44734;BME280;30462;52.446;-1.930;2024-01-30T04:18:14;100589.4141;;;;
44734;BME280;30462;52.446;-1.930;2024-01-30T04:19:14;100592.4766;;;;
44734;BME280;30462;52.446;-1.930;2024-01-30T04:20:14;100588.8672;;;;
44734;BME280;30462;52.446;-1.930;2024-01-30T04:21:14;100592.9922;;;;
44734;BME280;30462;52.446;-1.930;2024-01-30T04:22:14;100593.7773;;;;
44734;BME280;30462;52.446;-1.930;2024-01-30T04:23:13;100605.0234;;;;
44734;BME280;30462;52.446;-1.930;2024-01-30T04:24:13;100599.6758;;;;
44734;BME280;30462;52.446;-1.930;2024-01-30T04:25:14;100607.4219;;;;
44734;BME280;30462;52.446;-1.930;2024-01-30T04:26:14;100613.7227;;;;
44734;BME280;30462;52.446;-1.930;2024-01-30T04:27:14;100612.9961;;;;
44734;BME280;30462;52.446;-1.930;2024-01-30T04:28:13;100614.2227;;;;
44734;BME280;30462;52.446;-1.930;2024-01-30T04:29:14;100615.0547;;;;
44734;BME280;30462;52.446;-1.930;2024-01-30T04:30:14;100617.9258;;;;
44734;BME280;30462;52.446;-1.930;2024-01-30T04:31:14;100611.3164;;;;
44734;BME280;30462;52.446;-1.930;2024-01-30T04:32:14;100621.6719;;;;
44734;BME280;30462;52.446;-1.930;2024-01-30T04:33:14;100615.6758;;;;
44734;BME280;30462;52.446;-1.930;2024-01-30T04:34:13;100615.9375;;;;
44734;BME280;30462;52.446;-1.930;2024-01-30T04:35:14;100621.2695;;;;
44734;BME280;30462;52.446;-1.930;2024-01-30T04:36:14;100620.9609;;;;
44734;BME280;30462;52.446;-1.930;2024-01-30T04:37:14;100618.543;;;;
44734;BME280;30462;52.446;-1.930;2024-01-30T04:38:14;100622.6328;;;;
44734;BME280;30462;52.446;-1.930;2024-01-30T04:39:14;100621.8906;;;;
44734;BME280;30462;52.446;-1.930;2024-01-30T04:40:13;100628.6133;;;;
44734;BME280;30462;52.446;-1.930;2024-01-30T04:41:14;100629.2188;;;;
44734;BME280;30462;52.446;-1.930;2024-01-30T04:42:14;100639.6094;;;;
44734;BME280;30462;52.446;-1.930;2024-01-30T04:43:14;100638.0234;;;;
44734;BME280;30462;52.446;-1.930;2024-01-30T04:44:14;100635.4063;;;;
44734;BME280;30462;52.446;-1.930;2024-01-30T04:45:14;100645.1797;;;;
44734;BME280;30462;52.446;-1.930;2024-01-30T04:46:14;100644.5;;;;
44734;BME280;30462;52.446;-1.930;2024-01-30T04:47:14;100651.3594;;;;
44734;BME280;30462;52.446;-1.930;2024-01-30T04:48:14;100654.7188;;;;
44734;BME280;30462;52.446;-1.930;2024-01-30T04:49:14;100656.2656;;;;
44734;BME280;30462;52.446;-1.930;2024-01-30T04:50:14;100664.9766;;;;
44734;BME280;30462;52.446;-1.930;2024-01-30T04:51:14;100665.1602;;;;
44734;BME280;30462;52.446;-1.930;2024-01-30T04:52:13;100672.8047;;;;
44734;BME280;30462;52.446;-1.930;2024-01-30T04:53:13;100675.9023;;;;
44734;BME280;30462;52.446;-1.930;2024-01-30T04:54:14;100670.1875;;;;
44734;BME280;30462;52.446;-1.930;2024-01-30T04:55:14;100666.4336;;;;
44734;BME280;30462;52.446;-1.930;2024-01-30T04:56:14;100670.8008;;;;
44734;BME280;30462;52.446;-1.930;2024-01-30T04:57:14;100678.0352;;;;
44734;BME280;30462;52.446;-1.930;2024-01-30T04:58:14;100681.9219;;;;
44734;BME280;30462;52.446;-1.930;2024-01-30T04:59:13;100678.668;;;;
44734;BME280;30462;52.446;-1.930;2024-01-30T05:00:14;100685.4922;;;;
44734;BME280;30462;52.446;-1.930;2024-01-30T05:01:14;100686.2227;;;;
44734;BME280;30462;52.446;-1.930;2024-01-30T05:02:14;100679.5078;;;;
44734;BME280;30462;52.446;-1.930;2024-01-30T05:03:14;100680.5586;;;;
44734;BME280;30462;52.446;-1.930;2024-01-30T05:04:16;100680.1992;;;;
44734;BME280;30462;52.446;-1.930;2024-01-30T05:05:14;100678.0586;;;;
44734;BME280;30462;52.446;-1.930;2024-01-30T05:07:14;100687.9648;;;;
44734;BME280;30462;52.446;-1.930;2024-01-30T05:08:14;100695.5039;;;;
44734;BME280;30462;52.446;-1.930;2024-01-30T05:09:14;100695.9258;;;;
44734;BME280;30462;52.446;-1.930;2024-01-30T05:10:14;100701.5508;;;;
44734;BME280;30462;52.446;-1.930;2024-01-30T05:11:14;100697.5625;;;;
44734;BME280;30462;52.446;-1.930;2024-01-30T05:12:13;100684.6563;;;;
44734;BME280;30462;52.446;-1.930;2024-01-30T05:13:14;100701.668;;;;
44734;BME280;30462;52.446;-1.930;2024-01-30T05:14:14;100705.4063;;;;
44734;BME280;30462;52.446;-1.930;2024-01-30T05:15:14;100706.2227;;;;
44734;BME280;30462;52.446;-1.930;2024-01-30T05:16:14;100713.6484;;;;
44734;BME280;30462;52.446;-1.930;2024-01-30T05:17:14;100710.2227;;;;
44734;BME280;30462;52.446;-1.930;2024-01-30T05:18:13;100715.5508;;;;
44734;BME280;30462;52.446;-1.930;2024-01-30T05:19:14;100715.4961;;;;
44734;BME280;30462;52.446;-1.930;2024-01-30T05:20:14;100721.7305;;;;
44734;BME280;30462;52.446;-1.930;2024-01-30T05:21:14;100723.9258;;;;
44734;BME280;30462;52.446;-1.930;2024-01-30T05:22:14;100724.0078;;;;
44734;BME280;30462;52.446;-1.930;2024-01-30T05:23:13;100729.1367;;;;
44734;BME280;30462;52.446;-1.930;2024-01-30T05:24:14;100727.457;;;;
44734;BME280;30462;52.446;-1.930;2024-01-30T05:25:14;100728.5742;;;;
44734;BME280;30462;52.446;-1.930;2024-01-30T05:26:14;100729.8438;;;;
44734;BME280;30462;52.446;-1.930;2024-01-30T05:27:13;100734.1641;;;;
44734;BME280;30462;52.446;-1.930;2024-01-30T05:28:14;100734.1406;;;;
44734;BME280;30462;52.446;-1.930;2024-01-30T05:29:14;100736.0742;;;;
44734;BME280;30462;52.446;-1.930;2024-01-30T05:30:14;100741.5742;;;;
44734;BME280;30462;52.446;-1.930;2024-01-30T05:31:14;100742.3203;;;;
44734;BME280;30462;52.446;-1.930;2024-01-30T05:32:13;100742.5703;;;;
44734;BME280;30462;52.446;-1.930;2024-01-30T05:33:14;100752.5078;;;;
44734;BME280;30462;52.446;-1.930;2024-01-30T05:34:14;100748.5234;;;;
44734;BME280;30462;52.446;-1.930;2024-01-30T05:35:14;100752.8203;;;;
44734;BME280;30462;52.446;-1.930;2024-01-30T05:36:14;100747.4727;;;;
44734;BME280;30462;52.446;-1.930;2024-01-30T05:37:13;100749.4297;;;;
44734;BME280;30462;52.446;-1.930;2024-01-30T05:38:15;100752.9023;;;;
44734;BME280;30462;52.446;-1.930;2024-01-30T05:39:13;100746.7266;;;;
44734;BME280;30462;52.446;-1.930;2024-01-30T05:40:14;100755.1992;;;;
44734;BME280;30462;52.446;-1.930;2024-01-30T05:41:14;100749.9336;;;;
44734;BME280;30462;52.446;-1.930;2024-01-30T05:42:14;100756.1797;;;;
44734;BME280;30462;52.446;-1.930;2024-01-30T05:43:14;100754.7578;;;;
44734;BME280;30462;52.446;-1.930;2024-01-30T05:44:14;100755.9219;;;;
44734;BME280;30462;52.446;-1.930;2024-01-30T05:45:14;100765.4688;;;;
44734;BME280;30462;52.446;-1.930;2024-01-30T05:46:14;100763.7969;;;;
44734;BME280;30462;52.446;-1.930;2024-01-30T05:47:13;100759.9336;;;;
44734;BME280;30462;52.446;-1.930;2024-01-30T05:48:14;100760.7109;;;;
44734;BME280;30462;52.446;-1.930;2024-01-30T05:49:14;100757.3906;;;;